createdAt,value
2019-05-13T00:01:50.458Z,103228.86
2019-05-13T00:04:21.582Z,103230.22
2019-05-13T00:06:55.127Z,103229.73
2019-05-13T00:09:26.248Z,103231.45
2019-05-13T00:11:57.760Z,103232.33
2019-05-13T00:14:29.053Z,103231.50
2019-05-13T00:17:00.008Z,103230.98
2019-05-13T00:19:31.003Z,103234.52
2019-05-13T00:22:03.807Z,103245.14
2019-05-13T00:24:35.264Z,103242.02
2019-05-13T00:27:06.258Z,103243.73
2019-05-13T00:29:37.089Z,103241.01
2019-05-13T00:32:08.075Z,103240.59
2019-05-13T00:34:39.186Z,103245.94
2019-05-13T00:37:11.790Z,103245.04
2019-05-13T00:39:44.237Z,103246.81
2019-05-13T00:42:15.452Z,103247.73
2019-05-13T00:44:46.734Z,103252.20
2019-05-13T00:47:18.206Z,103253.10
2019-05-13T00:49:49.189Z,103248.63
2019-05-13T00:52:20.427Z,103250.37
2019-05-13T00:54:53.019Z,103250.33
2019-05-13T00:57:24.077Z,103242.17
2019-05-13T00:59:55.060Z,103237.19
2019-05-13T01:02:27.490Z,103236.60
2019-05-13T01:04:58.857Z,103241.53
2019-05-13T01:07:30.684Z,103240.95
2019-05-13T01:10:04.030Z,103240.98
2019-05-13T01:12:34.617Z,103239.62
2019-05-13T01:15:08.120Z,103237.91
2019-05-13T01:17:39.002Z,103235.64
2019-05-13T01:20:10.081Z,103239.15
2019-05-13T01:22:43.816Z,103237.72
2019-05-13T01:25:14.491Z,103239.42
2019-05-13T01:27:45.762Z,103240.33
2019-05-13T01:30:16.762Z,103239.86
2019-05-13T01:32:47.871Z,103235.42
2019-05-13T01:35:18.907Z,103234.56
2019-05-13T01:37:49.947Z,103244.77
2019-05-13T01:40:20.917Z,103238.03
2019-05-13T01:42:54.032Z,103234.36
2019-05-13T01:45:24.697Z,103233.00
2019-05-13T01:47:55.663Z,103241.80
2019-05-13T01:50:26.979Z,103240.37
2019-05-13T01:52:59.331Z,103243.94
2019-05-13T01:55:30.891Z,103242.06
2019-05-13T01:58:04.375Z,103242.00
2019-05-13T02:00:35.714Z,103236.23
2019-05-13T02:03:06.937Z,103241.03
2019-05-13T02:05:38.138Z,103244.99
2019-05-13T02:08:09.179Z,103245.31
2019-05-13T02:10:59.159Z,103244.41
2019-05-13T02:13:34.081Z,103241.24
2019-05-13T02:16:04.622Z,103241.20
2019-05-13T02:18:35.660Z,103234.32
2019-05-13T02:21:06.608Z,103242.24
2019-05-13T02:23:37.656Z,103247.50
2019-05-13T02:26:08.758Z,103255.41
2019-05-13T02:28:39.753Z,103259.84
2019-05-13T02:31:13.683Z,103258.86
2019-05-13T02:33:43.472Z,103260.63
2019-05-13T02:36:14.630Z,103265.91
2019-05-13T02:38:45.747Z,103268.02
2019-05-13T02:41:16.848Z,103270.91
2019-05-13T02:43:47.895Z,103271.73
2019-05-13T02:46:18.895Z,103270.86
2019-05-13T02:48:52.838Z,103277.48
2019-05-13T02:51:23.259Z,103274.34
2019-05-13T02:53:54.531Z,103277.83
2019-05-13T02:56:25.567Z,103277.39
2019-05-13T02:58:56.559Z,103276.40
2019-05-13T03:01:27.717Z,103278.80
2019-05-13T03:04:02.755Z,103280.91
2019-05-13T03:06:33.215Z,103279.09
2019-05-13T03:09:07.889Z,103277.76
2019-05-13T03:11:41.559Z,103286.94
2019-05-13T03:14:12.873Z,103285.98
2019-05-13T03:16:56.580Z,103285.43
2019-05-13T03:19:27.527Z,103284.99
2019-05-13T03:21:58.470Z,103288.52
2019-05-13T03:24:32.725Z,103285.33
2019-05-13T03:27:02.738Z,103295.02
2019-05-13T03:29:34.211Z,103290.98
2019-05-13T03:32:07.626Z,103291.84
2019-05-13T03:34:44.609Z,103294.84
2019-05-13T03:37:15.319Z,103296.11
2019-05-13T03:39:44.702Z,103300.48
2019-05-13T03:42:15.639Z,103298.67
2019-05-13T03:44:46.815Z,103303.94
2019-05-13T03:47:17.896Z,103304.32
2019-05-13T03:49:48.939Z,103305.66
2019-05-13T03:52:22.514Z,103309.06
2019-05-13T03:54:52.527Z,103309.56
2019-05-13T03:59:55.523Z,103315.30
2019-05-13T04:02:32.373Z,103316.25
2019-05-13T04:05:03.966Z,103325.09
2019-05-13T04:07:36.069Z,103324.55
2019-05-13T04:10:13.118Z,103323.17
2019-05-13T04:15:16.528Z,103330.23
2019-05-13T04:17:47.491Z,103324.39
2019-05-13T04:20:18.530Z,103332.38
2019-05-13T04:22:52.679Z,103333.64
2019-05-13T04:25:23.126Z,103337.16
2019-05-13T04:27:54.716Z,103333.21
2019-05-13T04:30:25.694Z,103337.20
2019-05-13T04:32:56.720Z,103336.84
2019-05-13T04:35:27.703Z,103333.75
2019-05-13T04:37:58.688Z,103345.40
2019-05-13T04:40:32.959Z,103344.55
2019-05-13T04:43:03.113Z,103341.90
2019-05-13T04:45:34.570Z,103344.92
2019-05-13T04:48:06.341Z,103347.58
2019-05-13T04:50:38.189Z,103344.50
2019-05-13T04:53:09.528Z,103341.52
2019-05-13T04:55:42.745Z,103344.12
2019-05-13T04:58:13.689Z,103337.95
2019-05-13T05:01:13.296Z,103345.08
2019-05-13T05:03:53.180Z,103349.72
2019-05-13T05:06:36.847Z,103353.44
2019-05-13T05:13:16.758Z,103353.52
2019-05-13T05:16:33.337Z,103347.98
2019-05-13T05:19:47.366Z,103353.20
2019-05-13T05:23:42.298Z,103356.92
2019-05-13T05:27:21.343Z,103359.91
2019-05-13T05:30:55.185Z,103356.23
2019-05-13T05:34:28.204Z,103368.12
2019-05-13T05:37:31.177Z,103370.66
2019-05-13T05:40:02.141Z,103366.55
2019-05-13T05:48:53.385Z,103376.59
2019-05-13T05:50:48.683Z,103368.45
2019-05-13T05:53:23.006Z,103368.34
2019-05-13T06:00:54.260Z,103355.39
2019-05-13T06:05:54.382Z,103345.73
2019-05-13T06:08:35.567Z,103350.04
2019-05-13T06:11:08.704Z,103349.80
2019-05-13T06:21:55.720Z,103349.56
2019-05-13T06:27:14.037Z,103347.12
2019-05-13T06:32:31.413Z,103344.47
2019-05-13T06:41:09.058Z,103338.70
2019-05-13T06:50:06.508Z,103334.97
2019-05-13T07:01:27.287Z,103348.91
2019-05-13T08:17:48.260Z,103314.33
2019-05-13T08:22:58.704Z,103312.33
2019-05-13T08:25:43.676Z,103311.27
2019-05-13T08:31:21.816Z,103310.77
2019-05-13T08:36:51.387Z,103318.46
2019-05-13T08:42:40.876Z,103311.55
2019-05-13T08:46:08.473Z,103307.20
2019-05-13T09:13:22.757Z,103295.81
2019-05-13T09:18:45.646Z,103291.25
2019-05-13T09:23:48.671Z,103291.75
2019-05-13T09:29:02.198Z,103286.64
2019-05-13T09:34:08.579Z,103290.63
2019-05-13T09:39:17.870Z,103282.05
2019-05-13T09:42:12.878Z,103286.39
2019-05-13T09:50:04.447Z,103281.38
2019-05-13T09:55:32.559Z,103281.32
2019-05-13T10:00:33.025Z,103279.91
2019-05-13T10:05:36.745Z,103274.08
2019-05-13T10:15:42.943Z,103269.22
2019-05-13T10:18:26.167Z,103277.56
2019-05-13T10:21:01.292Z,103279.42
2019-05-13T10:26:06.640Z,103252.24
2019-05-13T10:31:07.053Z,103262.50
2019-05-13T10:36:11.894Z,103268.70
2019-05-13T10:41:12.132Z,103255.64
2019-05-13T10:48:42.139Z,103243.52
2019-05-13T10:51:14.310Z,103251.27
2019-05-13T10:53:47.637Z,103245.20
2019-05-13T10:56:20.316Z,103248.78
2019-05-13T10:58:53.443Z,103238.80
2019-05-13T11:03:55.306Z,103236.33
2019-05-13T11:08:58.185Z,103230.42
2019-05-13T11:14:08.277Z,103221.70
2019-05-13T11:21:32.197Z,103210.71
2019-05-13T11:26:36.112Z,103207.98
2019-05-13T11:29:06.459Z,103205.13
2019-05-13T11:34:11.998Z,103209.97
2019-05-13T11:39:13.715Z,103205.24
2019-05-13T11:44:16.935Z,103192.98
2019-05-13T11:47:07.093Z,103202.41
2019-05-13T11:49:38.419Z,103198.22
2019-05-13T11:52:12.111Z,103198.26
2019-05-13T11:57:12.758Z,103178.70
2019-05-13T12:02:16.034Z,103179.35
2019-05-13T12:07:16.652Z,103171.66
2019-05-13T12:09:51.814Z,103171.38
2019-05-13T12:15:22.509Z,103165.78
2019-05-13T12:19:58.299Z,103160.79
2019-05-13T12:22:31.287Z,103155.52
2019-05-13T12:25:02.889Z,103150.27
2019-05-13T12:30:06.791Z,103148.17
2019-05-13T12:35:13.328Z,103136.81
2019-05-13T12:40:12.477Z,103130.16
2019-05-13T12:42:47.133Z,103126.91
2019-05-13T12:45:16.413Z,103132.69
2019-05-13T12:47:48.526Z,103136.49
2019-05-13T12:50:23.957Z,103139.70
2019-05-13T12:55:24.541Z,103125.40
2019-05-13T13:00:36.583Z,103117.63
2019-05-13T13:03:13.036Z,103127.83
2019-05-13T13:08:19.246Z,103111.70
2019-05-13T13:11:13.298Z,103120.97
2019-05-13T13:14:17.035Z,103113.12
2019-05-13T13:17:12.800Z,103118.88
2019-05-13T13:25:13.281Z,103094.63
2019-05-13T13:28:11.399Z,103102.65
2019-05-13T13:30:44.190Z,103101.02
2019-05-13T13:33:18.331Z,103106.30
2019-05-13T13:36:00.241Z,103103.02
2019-05-13T13:41:38.869Z,103089.17
2019-05-13T13:44:12.573Z,103082.91
2019-05-13T13:52:01.536Z,103072.86
2019-05-13T14:02:36.967Z,103067.04
2019-05-13T14:08:30.063Z,103061.30
2019-05-13T14:11:11.420Z,103058.42
2019-05-13T14:16:47.059Z,103046.69
2019-05-13T14:19:23.190Z,103044.05
2019-05-13T14:21:57.797Z,103045.53
2019-05-13T14:24:42.796Z,103037.95
2019-05-13T14:30:51.676Z,103040.44
2019-05-13T14:35:57.813Z,103034.56
2019-05-13T14:41:42.367Z,103035.75
2019-05-13T14:44:12.706Z,103028.20
2019-05-13T14:46:49.005Z,103020.23
2019-05-13T14:52:22.359Z,103016.99
2019-05-13T15:00:29.455Z,103016.70
2019-05-13T15:08:36.656Z,103022.03
2019-05-13T15:14:14.131Z,103013.48
2019-05-13T15:20:07.159Z,103014.99
2019-05-13T15:25:36.230Z,103002.05
2019-05-13T15:28:51.879Z,103008.75
2019-05-13T15:31:25.114Z,103003.88
2019-05-13T15:34:15.186Z,102997.09
2019-05-13T15:36:50.972Z,103006.45
2019-05-13T15:39:25.440Z,102993.41
2019-05-13T15:42:01.912Z,102997.20
2019-05-13T15:47:23.370Z,102997.77
2019-05-13T15:52:26.125Z,102991.83
2019-05-13T15:57:47.071Z,102986.72
2019-05-13T16:00:18.022Z,102989.05
2019-05-13T16:05:18.267Z,102985.73
2019-05-13T16:10:22.203Z,102969.59
2019-05-13T16:15:22.537Z,102967.00
2019-05-13T16:17:55.735Z,102965.80
2019-05-13T16:20:28.948Z,102969.54
2019-05-13T16:23:02.327Z,102967.89
2019-05-13T16:25:33.747Z,102965.52
2019-05-13T16:28:23.787Z,102963.91
2019-05-13T16:33:24.859Z,102964.63
2019-05-13T16:38:28.270Z,102971.20
2019-05-13T16:43:31.931Z,102964.63
2019-05-13T16:46:07.303Z,102960.64
2019-05-13T16:48:36.368Z,102961.66
2019-05-13T16:53:41.878Z,102959.12
2019-05-13T16:56:25.640Z,102955.33
2019-05-13T16:58:44.724Z,102952.88
2019-05-13T17:01:16.634Z,102952.91
2019-05-13T17:06:17.834Z,102956.69
2019-05-13T17:11:21.017Z,102943.23
2019-05-13T17:16:21.414Z,102948.98
2019-05-13T17:18:53.275Z,102958.23
2019-05-13T17:23:57.059Z,102952.11
2019-05-13T17:26:29.423Z,102952.53
2019-05-13T17:29:01.394Z,102957.98
2019-05-13T17:34:02.523Z,102947.84
2019-05-13T17:39:03.153Z,102947.95
2019-05-13T17:44:03.390Z,102945.30
2019-05-13T17:46:37.033Z,102941.58
2019-05-13T17:49:09.024Z,102941.16
2019-05-13T17:51:43.608Z,102936.30
2019-05-13T17:57:13.802Z,102934.88
2019-05-13T18:02:22.667Z,102937.36
2019-05-13T18:07:32.131Z,102936.61
2019-05-13T18:12:38.225Z,102934.45
2019-05-13T18:17:38.295Z,102942.59
2019-05-13T18:21:05.742Z,102945.48
2019-05-13T18:26:16.327Z,102944.44
2019-05-13T18:31:18.385Z,102944.28
2019-05-13T18:36:22.907Z,102947.92
2019-05-13T18:41:23.650Z,102944.66
2019-05-13T18:46:28.662Z,102949.12
2019-05-13T18:51:47.815Z,102953.41
2019-05-13T18:57:12.176Z,102950.78
2019-05-13T19:02:16.381Z,102962.00
2019-05-13T19:04:46.303Z,102953.50
2019-05-13T19:07:18.553Z,102957.91
2019-05-13T19:09:52.296Z,102962.54
2019-05-13T19:12:31.362Z,102959.78
2019-05-13T19:15:11.593Z,102965.56
2019-05-13T19:17:51.976Z,102973.50
2019-05-13T19:20:35.285Z,102972.61
2019-05-13T19:23:16.882Z,102969.61
2019-05-13T19:25:57.179Z,102972.59
2019-05-13T19:28:35.099Z,102980.78
2019-05-13T19:31:08.457Z,102985.01
2019-05-13T19:33:41.482Z,102980.58
2019-05-13T19:36:44.064Z,102986.14
2019-05-13T19:39:31.484Z,102982.08
2019-05-13T19:42:06.238Z,102984.17
2019-05-13T19:44:43.208Z,102980.58
2019-05-13T19:47:14.273Z,102987.84
2019-05-13T19:49:47.392Z,102979.28
2019-05-13T19:52:22.373Z,102984.27
2019-05-13T19:54:53.349Z,102985.64
2019-05-13T19:57:24.887Z,102989.94
2019-05-13T19:59:56.399Z,102990.09
2019-05-13T20:02:31.653Z,102982.13
2019-05-13T20:05:02.780Z,102986.30
2019-05-13T20:07:32.750Z,102987.75
2019-05-13T20:12:32.780Z,102985.77
2019-05-13T20:15:06.800Z,102989.55
2019-05-13T20:22:38.455Z,102997.58
2019-05-13T20:27:42.171Z,103000.83
2019-05-13T20:32:43.211Z,103005.55
2019-05-13T20:37:45.177Z,103000.98
2019-05-13T20:40:16.152Z,103005.55
2019-05-13T20:42:51.500Z,103012.41
2019-05-13T20:45:22.703Z,103014.27
2019-05-13T20:47:53.748Z,103010.31
2019-05-13T20:50:24.715Z,103017.50
2019-05-13T20:52:55.762Z,103019.34
2019-05-13T20:55:28.374Z,103022.05
2019-05-13T20:58:01.323Z,103033.38
2019-05-13T21:00:33.856Z,103033.61
2019-05-13T21:03:04.930Z,103031.48
2019-05-13T21:08:24.675Z,103040.13
2019-05-13T21:10:55.616Z,103039.74
2019-05-13T21:13:26.556Z,103033.92
2019-05-13T21:15:57.896Z,103043.38
2019-05-13T21:18:31.423Z,103042.93
2019-05-13T21:21:03.011Z,103045.22
2019-05-13T21:23:34.238Z,103048.41
2019-05-13T21:26:06.323Z,103053.02
2019-05-13T21:28:41.900Z,103057.05
2019-05-13T21:31:12.705Z,103054.36
2019-05-13T21:33:43.753Z,103052.28
2019-05-13T21:36:14.694Z,103048.81
2019-05-13T21:38:45.712Z,103054.08
2019-05-13T21:41:18.024Z,103056.39
2019-05-13T21:43:48.968Z,103055.53
2019-05-13T21:46:21.236Z,103058.66
2019-05-13T21:48:53.148Z,103052.88
2019-05-13T21:51:24.802Z,103054.70
2019-05-13T21:53:55.945Z,103061.42
2019-05-13T21:56:27.024Z,103062.77
2019-05-13T21:58:58.119Z,103058.83
2019-05-13T22:01:31.512Z,103062.44
2019-05-13T22:04:02.775Z,103065.59
2019-05-13T22:06:33.713Z,103067.41
2019-05-13T22:09:08.588Z,103062.09
2019-05-13T22:11:41.777Z,103062.98
2019-05-13T22:14:12.431Z,103063.92
2019-05-13T22:16:43.426Z,103056.32
2019-05-13T22:19:14.383Z,103052.79
2019-05-13T22:21:45.336Z,103055.02
2019-05-13T22:24:16.360Z,103055.47
2019-05-13T22:26:47.351Z,103054.14
2019-05-13T22:29:18.450Z,103058.59
2019-05-13T22:31:51.162Z,103048.31
2019-05-13T22:34:22.319Z,103047.02
2019-05-13T22:36:53.571Z,103047.47
2019-05-13T22:39:26.011Z,103038.09
2019-05-13T22:41:57.404Z,103046.59
2019-05-13T22:44:28.480Z,103042.58
2019-05-13T22:46:59.466Z,103042.58
2019-05-13T22:49:31.195Z,103050.22
2019-05-13T22:52:02.375Z,103047.52
2019-05-13T22:54:33.369Z,103045.27
2019-05-13T22:57:04.311Z,103046.17
2019-05-13T22:59:35.290Z,103050.20
2019-05-13T23:02:06.557Z,103052.42
2019-05-13T23:04:38.113Z,103054.20
2019-05-13T23:07:11.342Z,103051.98
2019-05-13T23:09:41.897Z,103055.58
2019-05-13T23:12:12.791Z,103053.36
2019-05-13T23:14:43.816Z,103052.91
2019-05-13T23:17:14.815Z,103050.69
2019-05-13T23:19:45.970Z,103055.16
2019-05-13T23:22:16.837Z,103055.15
2019-05-13T23:24:47.742Z,103054.72
2019-05-13T23:27:18.771Z,103055.59
2019-05-13T23:29:51.584Z,103061.42
2019-05-13T23:32:22.238Z,103063.22
2019-05-13T23:34:53.237Z,103058.76
2019-05-13T23:37:24.135Z,103054.72
2019-05-13T23:39:55.844Z,103064.11
2019-05-13T23:42:27.163Z,103063.66
2019-05-13T23:44:58.674Z,103056.52
2019-05-13T23:47:31.127Z,103058.31
2019-05-13T23:50:02.214Z,103059.64
2019-05-13T23:52:33.271Z,103063.67
2019-05-13T23:55:06.005Z,103057.41
2019-05-13T23:57:36.890Z,103060.55
